Time;durP1;ratioP1;P1;durP2;ratioP2;P2;SDS_P1;SDS_P2;PMS_P1;PMS_P2;Temp;Humidity;BMP_temperature;BMP_pressure;BME280_temperature;BME280_humidity;BME280_pressure;Samples;Min_cycle;Max_cycle;Signal;HPM_P1;HPM_P2
2023/01/31 00:00:10;;;;;;;17.07;7.50;;;;;;;1.17;99.03;96398.66;5038215;28;20187;-81
2023/01/31 00:02:35;;;;;;;15.37;7.20;;;;;;;1.12;99.49;96392.91;5033830;28;20614;-81
2023/01/31 00:05:01;;;;;;;11.27;6.93;;;;;;;1.15;99.25;96397.88;5032996;28;20302;-82
2023/01/31 00:07:26;;;;;;;14.43;6.40;;;;;;;1.04;99.92;96394.97;5043082;28;20664;-82
2023/01/31 00:09:51;;;;;;;14.53;6.37;;;;;;;1.03;100.00;96395.88;5040316;28;20258;-80
2023/01/31 00:12:16;;;;;;;14.23;6.43;;;;;;;1.05;99.69;96388.94;5033018;28;20217;-81
2023/01/31 00:14:42;;;;;;;12.83;7.27;;;;;;;1.07;99.06;96385.44;5039526;28;20568;-80
2023/01/31 00:17:07;;;;;;;16.67;6.80;;;;;;;1.09;99.13;96382.81;5043545;28;20191;-81
2023/01/31 00:19:32;;;;;;;15.43;7.10;;;;;;;0.97;98.99;96386.75;5031372;28;20268;-81
2023/01/31 00:21:58;;;;;;;11.53;6.47;;;;;;;0.95;100.00;96391.09;5031973;28;20344;-81
2023/01/31 00:24:23;;;;;;;14.27;7.07;;;;;;;0.97;99.63;96380.78;5042780;28;20884;-81
2023/01/31 00:26:55;;;;;;;13.77;7.17;;;;;;;0.94;99.62;96380.94;5033707;28;20744;-81
2023/01/31 00:29:21;;;;;;;8.57;6.47;;;;;;;0.96;99.68;96382.53;5047674;28;20190;-81
2023/01/31 00:31:46;;;;;;;10.73;6.83;;;;;;;0.80;100.00;96379.00;5032245;28;20206;-81
2023/01/31 00:34:11;;;;;;;13.33;6.63;;;;;;;0.78;100.00;96376.50;5045174;28;20190;-80
2023/01/31 00:36:37;;;;;;;14.43;6.00;;;;;;;0.87;100.00;96374.44;5049074;28;20256;-81
2023/01/31 00:39:03;;;;;;;12.27;6.47;;;;;;;0.89;100.00;96367.53;5046157;28;20233;-81
2023/01/31 00:41:30;;;;;;;11.20;5.70;;;;;;;0.82;99.61;96372.94;5040819;28;20689;-81
2023/01/31 00:43:56;;;;;;;12.93;5.50;;;;;;;0.91;99.26;96373.41;5026662;28;20254;-81
2023/01/31 00:46:22;;;;;;;15.47;6.07;;;;;;;0.92;98.54;96372.50;5047293;28;20196;-81
2023/01/31 00:48:48;;;;;;;10.93;6.37;;;;;;;0.89;99.04;96367.53;5032666;28;20194;-81
2023/01/31 00:51:14;;;;;;;14.17;7.00;;;;;;;0.84;99.92;96372.84;5040034;28;20210;-81
2023/01/31 00:53:39;;;;;;;10.70;6.53;;;;;;;0.85;100.00;96371.94;5031386;28;20256;-81
2023/01/31 00:56:24;;;;;;;16.07;6.37;;;;;;;0.85;100.00;96366.84;5031511;28;20193;-80
2023/01/31 00:58:50;;;;;;;12.67;6.77;;;;;;;0.91;100.00;96368.31;5031586;28;20209;-81
2023/01/31 01:01:23;;;;;;;12.77;7.20;;;;;;;0.90;100.00;96364.09;5036254;28;20565;-81
2023/01/31 01:03:49;;;;;;;16.23;7.17;;;;;;;0.89;100.00;96372.66;5033977;28;20651;-81
2023/01/31 01:06:14;;;;;;;15.13;8.23;;;;;;;1.00;100.00;96365.31;5035823;28;20197;-80
2023/01/31 01:08:41;;;;;;;16.87;7.77;;;;;;;1.00;100.00;96370.44;5029134;28;20210;-81
2023/01/31 01:11:21;;;;;;;16.43;10.33;;;;;;;1.05;100.00;96373.59;5031969;28;20210;-81
2023/01/31 01:13:47;;;;;;;17.53;8.53;;;;;;;1.18;100.00;96369.59;5025623;28;20201;-81
2023/01/31 01:16:16;;;;;;;15.70;7.83;;;;;;;1.33;100.00;96373.19;5031065;28;20195;-81
2023/01/31 01:18:43;;;;;;;16.70;8.97;;;;;;;1.23;100.00;96370.19;5030736;28;20182;-81
2023/01/31 01:21:11;;;;;;;14.10;8.37;;;;;;;1.29;100.00;96376.78;5038163;28;20217;-81
2023/01/31 01:23:38;;;;;;;19.37;8.10;;;;;;;1.27;100.00;96360.66;5032102;28;20328;-81
2023/01/31 01:26:04;;;;;;;17.77;9.10;;;;;;;1.16;100.00;96363.72;5032486;28;20193;-81
2023/01/31 01:28:33;;;;;;;19.67;9.73;;;;;;;1.13;100.00;96363.84;5048825;28;20238;-81
2023/01/31 01:30:59;;;;;;;21.23;9.20;;;;;;;1.12;100.00;96364.75;5043789;28;20206;-81
2023/01/31 01:33:24;;;;;;;20.87;9.07;;;;;;;0.96;100.00;96356.94;5044281;28;20178;-82
2023/01/31 01:35:49;;;;;;;16.37;8.50;;;;;;;1.01;100.00;96351.63;5034100;28;20256;-82
2023/01/31 01:38:14;;;;;;;17.93;9.00;;;;;;;0.96;100.00;96339.03;5046708;28;20201;-82
2023/01/31 01:40:40;;;;;;;18.13;9.13;;;;;;;1.06;100.00;96349.69;5044710;28;20218;-82
2023/01/31 01:43:09;;;;;;;17.73;9.37;;;;;;;0.98;100.00;96362.00;5033917;28;20193;-82
2023/01/31 01:45:34;;;;;;;14.77;8.03;;;;;;;0.94;100.00;96355.38;5041384;28;20239;-82
2023/01/31 01:48:03;;;;;;;17.57;8.93;;;;;;;0.83;100.00;96350.75;5039985;28;20612;-82
2023/01/31 01:50:29;;;;;;;15.60;8.60;;;;;;;0.96;100.00;96339.03;5046356;28;20189;-82
2023/01/31 01:53:07;;;;;;;16.87;9.20;;;;;;;0.93;100.00;96346.03;5051270;28;20197;-82
2023/01/31 01:55:42;;;;;;;13.93;7.83;;;;;;;0.84;100.00;96344.72;5033807;28;20194;-82
2023/01/31 01:58:23;;;;;;;20.17;8.90;;;;;;;0.93;100.00;96343.47;5042771;28;20178;-81
2023/01/31 02:00:49;;;;;;;22.77;8.20;;;;;;;0.84;100.00;96355.78;5048898;28;20686;-82
2023/01/31 02:03:14;;;;;;;13.90;7.43;;;;;;;0.83;100.00;96360.97;5034672;28;20191;-82
2023/01/31 02:05:55;;;;;;;17.97;8.83;;;;;;;0.67;100.00;96359.97;5041056;28;20197;-82
2023/01/31 02:08:22;;;;;;;18.90;8.73;;;;;;;0.78;100.00;96362.88;5046572;28;20205;-82
2023/01/31 02:10:53;;;;;;;17.03;8.83;;;;;;;0.77;100.00;96363.78;5034581;28;20209;-81
2023/01/31 02:13:19;;;;;;;15.10;8.10;;;;;;;0.74;100.00;96369.88;5045987;28;20190;-82
2023/01/31 02:15:45;;;;;;;14.03;7.73;;;;;;;0.70;100.00;96355.56;5023573;28;20190;-82
2023/01/31 02:18:11;;;;;;;20.80;8.07;;;;;;;0.68;100.00;96357.34;5019993;28;20631;-82
2023/01/31 02:21:03;;;;;;;13.23;7.90;;;;;;;0.70;100.00;96355.56;5037261;28;20221;-81
2023/01/31 02:23:55;;;;;;;17.80;7.77;;;;;;;0.60;100.00;96354.31;5042536;28;20184;-82
2023/01/31 02:26:33;;;;;;;16.87;7.50;;;;;;;0.62;100.00;96361.91;5026977;28;20197;-82
2023/01/31 02:29:13;;;;;;;14.63;6.83;;;;;;;0.52;100.00;96369.16;5035441;28;20216;-81
2023/01/31 02:32:00;;;;;;;16.90;7.33;;;;;;;0.55;100.00;96372.41;5057485;28;20205;-82
2023/01/31 02:34:37;;;;;;;17.63;7.87;;;;;;;0.57;100.00;96370.63;5046677;28;20188;-81
2023/01/31 02:37:23;;;;;;;15.27;6.87;;;;;;;0.56;100.00;96373.25;5027395;28;20276;-81
2023/01/31 02:40:00;;;;;;;16.50;7.57;;;;;;;0.57;100.00;96372.34;5037170;28;20206;-82
2023/01/31 02:42:28;;;;;;;19.97;8.20;;;;;;;0.49;100.00;96364.19;5030728;28;20710;-81
2023/01/31 02:45:03;;;;;;;14.00;7.17;;;;;;;0.59;100.00;96370.53;5046974;28;20190;-81
2023/01/31 02:48:09;;;;;;;18.50;8.00;;;;;;;0.61;100.00;96376.41;5045730;28;20210;-82
2023/01/31 02:50:43;;;;;;;13.53;8.43;;;;;;;0.48;100.00;96377.84;5038424;28;20214;-81
2023/01/31 02:53:29;;;;;;;18.30;9.47;;;;;;;0.51;100.00;96372.59;5035111;28;20684;-81
2023/01/31 02:56:13;;;;;;;17.80;8.60;;;;;;;0.55;100.00;96363.91;5034899;28;20300;-80
2023/01/31 02:58:45;;;;;;;17.87;9.43;;;;;;;0.50;100.00;96369.22;5026698;28;20193;-81
2023/01/31 03:01:14;;;;;;;19.07;8.37;;;;;;;0.56;100.00;96370.69;5049615;28;20217;-81
2023/01/31 03:03:40;;;;;;;16.17;9.17;;;;;;;0.48;100.00;96367.63;5034552;28;20213;-80
2023/01/31 03:06:34;;;;;;;18.60;8.30;;;;;;;0.53;100.00;96370.78;5035220;28;20725;-81
2023/01/31 03:09:10;;;;;;;17.83;8.60;;;;;;;0.52;100.00;96380.19;5049485;28;20230;-81
2023/01/31 03:11:45;;;;;;;18.40;9.20;;;;;;;0.46;100.00;96372.81;5035130;28;21029;-81
2023/01/31 03:14:17;;;;;;;23.73;9.67;;;;;;;0.53;100.00;96373.34;5043805;28;20178;-80
2023/01/31 03:19:45;;;;;;;17.73;8.47;;;;;;;0.66;100.00;96382.16;5034888;28;20273;-81
2023/01/31 03:22:16;;;;;;;17.67;9.00;;;;;;;0.52;100.00;96387.03;5028171;28;20220;-82
2023/01/31 03:24:43;;;;;;;16.13;8.80;;;;;;;0.61;100.00;96384.06;5038631;28;20610;-81
2023/01/31 03:27:10;;;;;;;18.60;8.80;;;;;;;0.59;100.00;96379.94;5051370;28;20209;-81
2023/01/31 03:29:37;;;;;;;21.63;9.97;;;;;;;0.60;100.00;96379.88;5035005;28;20190;-81
2023/01/31 03:32:11;;;;;;;16.17;8.63;;;;;;;0.67;100.00;96376.16;5033261;28;20245;-81
2023/01/31 03:34:36;;;;;;;21.77;9.93;;;;;;;0.61;100.00;96378.13;5040038;28;20193;-81
2023/01/31 03:37:16;;;;;;;22.10;10.03;;;;;;;0.65;100.00;96379.69;5035031;28;20194;-81
2023/01/31 03:40:04;;;;;;;22.43;9.17;;;;;;;0.68;100.00;96390.59;5034205;28;20624;-81
2023/01/31 03:42:43;;;;;;;14.87;8.47;;;;;;;0.63;100.00;96400.19;5046495;28;20229;-81
2023/01/31 03:45:14;;;;;;;25.57;10.60;;;;;;;0.67;100.00;96404.28;5037814;28;20201;-81
2023/01/31 03:47:48;;;;;;;20.97;9.03;;;;;;;0.70;100.00;96399.00;5041501;28;20308;-81
2023/01/31 03:50:37;;;;;;;22.10;9.20;;;;;;;0.72;100.00;96402.34;5039069;28;20191;-81
2023/01/31 03:53:26;;;;;;;21.30;9.67;;;;;;;0.82;100.00;96401.06;5029849;28;20296;-81
2023/01/31 03:55:56;;;;;;;27.10;10.07;;;;;;;0.81;100.00;96396.00;5051449;28;20185;-81
2023/01/31 03:58:30;;;;;;;22.00;9.17;;;;;;;0.76;100.00;96406.41;5028127;28;20200;-81
2023/01/31 04:01:01;;;;;;;25.00;10.07;;;;;;;0.75;100.00;96404.75;5049599;28;20209;-81
2023/01/31 04:03:30;;;;;;;20.20;8.83;;;;;;;0.73;100.00;96406.56;5034443;28;20205;-81
2023/01/31 04:05:56;;;;;;;18.23;10.37;;;;;;;0.72;100.00;96415.13;5031839;28;20200;-81
2023/01/31 04:08:21;;;;;;;24.47;10.57;;;;;;;0.59;100.00;96415.72;5035075;28;20636;-81
2023/01/31 04:10:47;;;;;;;23.47;10.67;;;;;;;0.54;100.00;96415.94;5050874;28;20220;-81
2023/01/31 04:13:12;;;;;;;17.60;10.00;;;;;;;0.67;100.00;96411.94;5049119;28;20190;-81
2023/01/31 04:15:37;;;;;;;21.20;9.73;;;;;;;0.65;100.00;96413.75;5047103;28;20183;-82
2023/01/31 04:18:03;;;;;;;27.83;9.97;;;;;;;0.64;100.00;96417.19;5043180;28;20239;-81
2023/01/31 04:20:28;;;;;;;21.57;10.13;;;;;;;0.61;100.00;96409.63;5041502;28;20280;-82
2023/01/31 04:22:53;;;;;;;15.63;9.93;;;;;;;0.63;100.00;96419.81;5050480;28;20199;-82
2023/01/31 04:25:18;;;;;;;22.63;10.87;;;;;;;0.67;100.00;96409.38;5038850;28;20194;-81
2023/01/31 04:27:44;;;;;;;18.70;10.07;;;;;;;0.62;100.00;96424.09;5056492;28;20214;-80
2023/01/31 04:30:10;;;;;;;20.13;9.60;;;;;;;0.76;100.00;96419.22;5056823;28;20569;-82
2023/01/31 04:32:35;;;;;;;18.40;9.43;;;;;;;0.70;100.00;96422.03;5050338;28;20210;-82
2023/01/31 04:35:00;;;;;;;24.97;10.43;;;;;;;0.74;100.00;96408.22;5037056;28;20187;-82
2023/01/31 04:37:25;;;;;;;19.83;10.33;;;;;;;0.74;100.00;96407.41;5057625;28;20196;-82
2023/01/31 04:39:51;;;;;;;18.77;9.93;;;;;;;0.73;100.00;96401.47;5056484;28;20208;-82
2023/01/31 04:42:16;;;;;;;20.70;10.13;;;;;;;0.66;100.00;96410.28;5040169;28;20221;-81
2023/01/31 04:44:41;;;;;;;19.17;8.67;;;;;;;0.58;100.00;96407.22;5038170;28;20251;-81
2023/01/31 04:47:07;;;;;;;24.80;9.87;;;;;;;0.55;100.00;96413.31;5044741;28;20220;-80
2023/01/31 04:49:32;;;;;;;27.03;10.10;;;;;;;0.57;100.00;96421.72;5054208;28;20673;-81
2023/01/31 04:51:57;;;;;;;18.67;9.80;;;;;;;0.56;100.00;96409.03;5038838;28;20210;-81
2023/01/31 04:54:23;;;;;;;20.73;9.20;;;;;;;0.44;100.00;96414.63;5039526;28;20667;-81
2023/01/31 04:56:48;;;;;;;20.63;9.80;;;;;;;0.37;100.00;96410.72;5019751;28;20233;-81
2023/01/31 04:59:13;;;;;;;20.40;10.17;;;;;;;0.45;100.00;96406.09;5040420;28;20190;-82
2023/01/31 05:01:40;;;;;;;18.53;9.43;;;;;;;0.40;100.00;96408.84;5036673;28;20604;-81
2023/01/31 05:04:06;;;;;;;20.67;9.60;;;;;;;0.28;100.00;96407.63;5038775;28;20177;-81
2023/01/31 05:06:31;;;;;;;19.60;9.10;;;;;;;0.27;100.00;96400.03;5043162;28;20578;-81
2023/01/31 05:09:00;;;;;;;20.57;8.60;;;;;;;0.25;100.00;96397.53;5038445;28;20217;-81
2023/01/31 05:11:25;;;;;;;19.40;8.80;;;;;;;0.28;100.00;96392.31;5037345;28;20206;-80
2023/01/31 05:13:50;;;;;;;21.23;8.63;;;;;;;0.25;100.00;96397.53;5045395;28;20292;-82
2023/01/31 05:16:16;;;;;;;24.00;9.87;;;;;;;0.19;100.00;96395.25;5033911;28;20709;-82
2023/01/31 05:18:41;;;;;;;16.73;8.43;;;;;;;0.14;100.00;96388.66;5034285;28;20186;-81
2023/01/31 05:21:07;;;;;;;18.63;8.23;;;;;;;0.14;100.00;96394.59;5040894;28;20209;-81
2023/01/31 05:23:32;;;;;;;18.33;8.27;;;;;;;0.22;100.00;96390.00;5045726;28;20212;-81
2023/01/31 05:25:58;;;;;;;19.10;8.70;;;;;;;0.14;100.00;96394.59;5032482;28;20201;-80
2023/01/31 05:28:24;;;;;;;24.30;7.67;;;;;;;0.13;100.00;96403.16;5036713;28;20202;-81
2023/01/31 05:30:53;;;;;;;16.97;7.53;;;;;;;0.02;100.00;96399.41;5025261;28;20214;-84
2023/01/31 05:33:19;;;;;;;16.87;7.57;;;;;;;0.11;100.00;96394.75;5026395;28;20293;-82
2023/01/31 05:35:45;;;;;;;18.00;6.57;;;;;;;0.02;100.00;96402.78;5034370;28;20324;-82
2023/01/31 05:38:11;;;;;;;17.27;6.07;;;;;;;-0.09;100.00;96389.59;5046347;28;20195;-82
2023/01/31 05:40:36;;;;;;;20.13;5.87;;;;;;;0.03;100.00;96396.78;5034757;28;20947;-81
2023/01/31 05:43:02;;;;;;;17.17;7.00;;;;;;;0.06;99.60;96401.75;5034606;28;20200;-81
2023/01/31 05:45:28;;;;;;;19.77;7.13;;;;;;;0.06;99.67;96403.47;5049118;28;20558;-80
2023/01/31 05:47:55;;;;;;;10.33;5.40;;;;;;;0.05;100.00;96410.31;5043573;28;20212;-81
2023/01/31 05:50:21;;;;;;;12.73;6.10;;;;;;;0.05;99.12;96405.19;5037671;28;20644;-82
2023/01/31 05:52:54;;;;;;;18.27;5.90;;;;;;;0.00;99.04;96414.78;5031783;28;20193;-81
2023/01/31 05:55:20;;;;;;;11.50;5.60;;;;;;;-0.14;98.58;96410.22;5032502;28;20553;-82
2023/01/31 05:57:45;;;;;;;10.93;5.80;;;;;;;0.00;97.85;96417.34;5033392;28;20189;-81
2023/01/31 06:00:11;;;;;;;15.27;5.70;;;;;;;-0.04;97.26;96413.22;5033909;28;20235;-81
2023/01/31 06:02:37;;;;;;;15.33;4.97;;;;;;;0.02;95.78;96413.00;5034714;28;20197;-82
2023/01/31 06:05:02;;;;;;;14.33;4.93;;;;;;;-0.16;95.40;96416.28;5039284;28;20276;-82
2023/01/31 06:07:28;;;;;;;12.67;4.67;;;;;;;-0.03;95.38;96417.44;5038267;28;20244;-80
2023/01/31 06:09:53;;;;;;;16.67;5.27;;;;;;;0.01;94.81;96411.34;5036162;28;20193;-81
2023/01/31 06:12:18;;;;;;;15.10;5.17;;;;;;;-0.03;94.39;96407.22;5033221;28;20224;-81
2023/01/31 06:14:45;;;;;;;16.03;4.43;;;;;;;-0.04;94.52;96406.41;5033738;28;20209;-80
2023/01/31 06:17:10;;;;;;;15.50;6.77;;;;;;;-0.13;95.10;96411.88;5030432;28;20228;-81
2023/01/31 06:19:36;;;;;;;12.30;4.97;;;;;;;-0.11;94.97;96414.38;5031977;28;20224;-81
2023/01/31 06:22:01;;;;;;;14.57;5.40;;;;;;;-0.19;95.07;96409.56;5031494;28;20711;-81
2023/01/31 06:24:26;;;;;;;10.73;4.70;;;;;;;-0.23;95.88;96415.69;5040565;28;20197;-81
2023/01/31 06:26:51;;;;;;;10.87;4.90;;;;;;;-0.18;95.61;96421.44;5041900;28;20212;-80
2023/01/31 06:29:17;;;;;;;12.07;5.03;;;;;;;-0.20;95.65;96418.13;5033390;28;20309;-80
2023/01/31 06:31:44;;;;;;;14.30;4.67;;;;;;;-0.15;95.06;96423.88;5036290;28;20719;-80
2023/01/31 06:34:09;;;;;;;13.03;5.47;;;;;;;-0.09;94.52;96433.88;5037977;28;20188;-82
2023/01/31 06:36:34;;;;;;;11.83;5.27;;;;;;;-0.19;94.95;96426.59;5035684;28;20279;-81
2023/01/31 06:38:59;;;;;;;11.00;4.67;;;;;;;-0.14;94.36;96432.38;5026262;28;20334;-80
2023/01/31 06:41:25;;;;;;;13.27;5.07;;;;;;;-0.21;94.86;96433.50;5037577;28;20208;-80
2023/01/31 06:43:50;;;;;;;12.63;4.90;;;;;;;-0.23;96.15;96436.13;5054342;28;20193;-82
2023/01/31 06:46:16;;;;;;;18.90;5.03;;;;;;;-0.20;95.34;96430.88;5035308;28;20298;-80
2023/01/31 06:48:42;;;;;;;13.27;4.67;;;;;;;-0.17;95.30;96430.78;5045713;28;20212;-81
2023/01/31 06:51:08;;;;;;;10.40;4.70;;;;;;;-0.08;95.35;96429.59;5038389;28;20957;-80
2023/01/31 06:53:33;;;;;;;13.27;5.50;;;;;;;-0.03;94.80;96440.44;5039112;28;20291;-81
2023/01/31 06:55:58;;;;;;;12.40;5.53;;;;;;;-0.15;95.19;96433.28;5033917;28;20193;-81
2023/01/31 06:58:23;;;;;;;14.90;5.50;;;;;;;-0.11;95.79;96427.13;5049147;28;20248;-82
2023/01/31 07:00:49;;;;;;;13.20;5.63;;;;;;;-0.06;95.20;96433.72;5040814;28;20216;-81
2023/01/31 07:03:14;;;;;;;13.63;5.77;;;;;;;-0.11;96.10;96430.50;5044145;28;20209;-82
2023/01/31 07:05:39;;;;;;;17.03;5.57;;;;;;;-0.31;99.07;96433.03;5043537;28;20610;-81
2023/01/31 07:08:05;;;;;;;19.20;6.30;;;;;;;-0.25;99.00;96437.91;5043903;28;20245;-82
2023/01/31 07:10:30;;;;;;;16.27;6.87;;;;;;;-0.05;97.73;96444.78;5055000;28;20198;-82
2023/01/31 07:12:55;;;;;;;20.17;8.77;;;;;;;-0.11;97.99;96439.91;5052650;28;20188;-81
2023/01/31 07:15:21;;;;;;;15.90;8.47;;;;;;;-0.08;97.51;96445.72;5042237;28;20227;-82
2023/01/31 07:17:46;;;;;;;17.40;8.03;;;;;;;-0.12;98.06;96439.06;5030544;28;20178;-81
2023/01/31 07:20:12;;;;;;;16.73;7.70;;;;;;;-0.14;98.41;96442.59;5044671;28;20182;-82
2023/01/31 07:22:37;;;;;;;11.93;5.93;;;;;;;-0.18;99.14;96441.84;5050391;28;20209;-82
2023/01/31 07:25:03;;;;;;;17.90;6.43;;;;;;;-0.08;99.03;96442.34;5038392;28;20248;-81
2023/01/31 07:27:28;;;;;;;16.90;7.10;;;;;;;0.01;98.41;96441.97;5038723;28;20773;-80
2023/01/31 07:29:53;;;;;;;17.40;6.53;;;;;;;-0.02;99.01;96442.91;5052770;28;20181;-80
2023/01/31 07:32:18;;;;;;;18.33;7.20;;;;;;;0.00;99.10;96447.97;5049832;28;20205;-79
2023/01/31 07:34:45;;;;;;;11.03;6.27;;;;;;;0.11;98.50;96448.38;5040062;28;20664;-80
2023/01/31 07:37:10;;;;;;;19.83;8.37;;;;;;;-0.02;97.97;96449.75;5040318;28;20182;-80
2023/01/31 07:39:35;;;;;;;17.97;6.60;;;;;;;0.24;97.47;96441.84;5037753;28;20212;-81
2023/01/31 07:42:01;;;;;;;12.97;6.10;;;;;;;0.30;96.75;96448.44;5039744;28;20221;-81
2023/01/31 07:44:26;;;;;;;13.00;5.83;;;;;;;0.30;98.00;96447.63;5058761;28;20177;-81
2023/01/31 07:46:53;;;;;;;12.00;5.97;;;;;;;0.48;96.45;96449.41;5035533;28;20190;-80
2023/01/31 07:49:19;;;;;;;14.77;5.47;;;;;;;0.60;95.59;96454.00;5034220;28;20848;-80
2023/01/31 07:51:44;;;;;;;14.53;6.00;;;;;;;0.44;96.47;96447.84;5041782;28;20213;-80
2023/01/31 07:54:10;;;;;;;17.47;6.83;;;;;;;0.51;95.57;96447.53;5039822;28;20661;-81
2023/01/31 07:56:36;;;;;;;16.97;5.60;;;;;;;0.67;94.52;96450.28;5032096;28;20197;-81
2023/01/31 07:59:01;;;;;;;7.70;4.80;;;;;;;0.98;93.34;96454.91;5043210;28;20240;-80
2023/01/31 08:04:13;;;;;;;12.63;6.33;;;;;;;1.38;91.74;96463.38;5048946;28;20197;-80
2023/01/31 08:06:40;;;;;;;15.07;5.07;;;;;;;1.28;92.08;96464.69;5039852;28;20181;-81
2023/01/31 08:09:05;;;;;;;12.23;4.73;;;;;;;1.13;92.08;96471.28;5063454;28;20196;-81
2023/01/31 08:11:31;;;;;;;17.33;5.87;;;;;;;1.32;91.07;96472.13;5041480;28;20229;-79
2023/01/31 08:13:56;;;;;;;13.23;4.57;;;;;;;1.39;90.06;96465.84;5051013;28;20228;-79
2023/01/31 08:16:21;;;;;;;15.87;4.80;;;;;;;1.50;90.45;96467.09;5048180;28;20764;-80
2023/01/31 08:18:47;;;;;;;12.50;4.93;;;;;;;1.27;90.39;96460.47;5037305;28;20207;-81
2023/01/31 08:21:13;;;;;;;13.60;4.73;;;;;;;1.47;89.39;96462.13;5039054;28;20684;-80
2023/01/31 08:23:39;;;;;;;10.87;4.43;;;;;;;1.35;90.06;96471.19;5037225;28;20187;-80
2023/01/31 08:26:09;;;;;;;16.43;6.20;;;;;;;1.55;89.91;96470.28;5038824;28;20200;-79
2023/01/31 08:28:34;;;;;;;21.10;5.17;;;;;;;1.35;90.18;96461.78;5047882;28;20286;-80
2023/01/31 08:31:00;;;;;;;17.03;4.70;;;;;;;1.21;90.81;96464.13;5041112;28;20221;-80
2023/01/31 08:33:25;;;;;;;11.60;4.80;;;;;;;1.26;91.09;96454.50;5039153;28;20193;-79
2023/01/31 08:35:50;;;;;;;10.93;4.37;;;;;;;1.41;90.14;96461.50;5040066;28;20256;-79
2023/01/31 08:38:16;;;;;;;13.20;4.77;;;;;;;1.28;90.92;96460.38;5038735;28;20202;-79
2023/01/31 08:40:41;;;;;;;19.27;5.37;;;;;;;1.31;90.88;96462.78;5031913;28;20266;-79
2023/01/31 08:43:07;;;;;;;12.50;4.43;;;;;;;1.44;90.47;96465.66;5037328;28;20677;-81
2023/01/31 08:45:32;;;;;;;12.53;4.60;;;;;;;1.31;89.80;96461.97;5032493;28;20628;-79
2023/01/31 08:47:58;;;;;;;10.60;4.60;;;;;;;1.45;90.11;96459.63;5040532;28;20220;-80
2023/01/31 08:50:27;;;;;;;15.13;4.70;;;;;;;1.64;89.04;96454.50;5038755;28;20190;-80
2023/01/31 08:52:56;;;;;;;18.03;7.27;;;;;;;1.73;88.32;96456.63;5040895;28;20646;-80
2023/01/31 08:55:22;;;;;;;13.87;6.23;;;;;;;1.86;87.62;96460.28;5039462;28;20276;-79
2023/01/31 08:57:48;;;;;;;15.00;6.63;;;;;;;1.93;87.68;96455.69;5038921;28;20209;-79
2023/01/31 09:00:13;;;;;;;17.60;7.67;;;;;;;1.93;87.52;96459.06;5044774;28;20189;-80
2023/01/31 09:02:39;;;;;;;19.50;7.23;;;;;;;2.13;87.11;96454.75;5036071;28;20210;-80
2023/01/31 09:05:07;;;;;;;16.23;6.37;;;;;;;2.31;86.56;96458.16;5030188;28;20189;-79
2023/01/31 09:07:32;;;;;;;14.50;7.00;;;;;;;2.33;85.67;96459.72;5038710;28;20202;-79
2023/01/31 09:09:57;;;;;;;15.73;5.80;;;;;;;2.41;85.59;96457.63;5037996;28;20558;-79
2023/01/31 09:12:23;;;;;;;15.93;5.47;;;;;;;2.33;85.31;96448.63;5047560;28;20229;-80
2023/01/31 09:14:50;;;;;;;10.43;5.00;;;;;;;2.42;85.53;96446.44;5038653;28;20190;-80
2023/01/31 09:17:15;;;;;;;11.97;5.83;;;;;;;2.48;84.80;96448.72;5046947;28;20184;-80
2023/01/31 09:19:40;;;;;;;10.37;5.40;;;;;;;2.38;84.68;96441.53;5042474;28;20268;-80
2023/01/31 09:22:05;;;;;;;9.43;4.30;;;;;;;2.38;84.81;96447.50;5045381;28;20238;-79
2023/01/31 09:24:31;;;;;;;10.57;4.60;;;;;;;2.63;84.05;96441.16;5031333;28;20262;-79
2023/01/31 09:26:56;;;;;;;19.60;5.60;;;;;;;2.83;83.09;96440.97;5039067;28;20217;-80
2023/01/31 09:29:21;;;;;;;12.40;5.90;;;;;;;3.12;82.46;96440.28;5032976;28;20236;-79
2023/01/31 09:31:50;;;;;;;9.67;4.83;;;;;;;3.23;80.92;96428.63;5043380;28;20650;-79
2023/01/31 09:34:16;;;;;;;8.23;4.23;;;;;;;3.34;81.44;96427.13;5035955;28;20181;-79
2023/01/31 09:36:41;;;;;;;13.47;5.70;;;;;;;3.13;80.64;96421.41;5039937;28;20190;-79
2023/01/31 09:39:07;;;;;;;11.97;6.00;;;;;;;3.19;80.97;96414.31;5043180;28;20186;-79
2023/01/31 09:41:42;;;;;;;14.50;5.13;;;;;;;3.22;81.13;96414.97;5042006;28;20210;-79
2023/01/31 09:44:19;;;;;;;11.93;3.87;;;;;;;3.35;80.70;96425.38;5037307;28;20200;-80
2023/01/31 09:47:13;;;;;;;8.73;3.97;;;;;;;3.29;80.71;96428.31;5046812;28;20653;-79
2023/01/31 09:49:45;;;;;;;11.57;3.60;;;;;;;3.45;80.11;96434.28;5043315;28;20834;-80
2023/01/31 09:52:10;;;;;;;21.23;4.80;;;;;;;3.40;79.05;96429.38;5034748;28;20210;-80
2023/01/31 09:54:37;;;;;;;13.27;4.20;;;;;;;3.45;78.54;96430.88;5024648;28;20760;-80
2023/01/31 09:57:18;;;;;;;8.13;3.80;;;;;;;3.46;78.30;96427.41;5029147;28;20197;-79
2023/01/31 10:00:02;;;;;;;18.07;4.47;;;;;;;3.49;78.10;96432.38;5045426;28;20187;-79
2023/01/31 10:02:27;;;;;;;9.20;3.47;;;;;;;2.97;78.35;96437.69;5039343;28;20238;-80
2023/01/31 10:05:29;;;;;;;10.27;3.50;;;;;;;3.23;78.45;96438.88;5052446;28;20570;-82
2023/01/31 10:08:14;;;;;;;15.20;3.90;;;;;;;3.22;78.78;96438.06;4991020;28;20228;-83
2023/01/31 10:10:54;;;;;;;12.10;4.53;;;;;;;3.32;78.56;96451.25;4963265;28;20223;-81
2023/01/31 10:13:21;;;;;;;11.10;3.93;;;;;;;3.34;78.49;96454.53;4967613;28;20668;-79
2023/01/31 10:16:01;;;;;;;9.00;4.00;;;;;;;3.39;78.54;96465.41;4957126;28;20199;-81
2023/01/31 10:18:30;;;;;;;12.70;5.43;;;;;;;3.28;78.77;96457.47;4960712;28;20210;-81
2023/01/31 10:20:59;;;;;;;12.30;5.70;;;;;;;3.18;78.68;96454.56;4952176;28;20306;-82
2023/01/31 10:23:36;;;;;;;10.77;4.70;;;;;;;3.25;79.01;96452.47;4965647;28;20290;-83
2023/01/31 10:26:26;;;;;;;11.77;5.30;;;;;;;3.57;77.96;96451.59;4971403;28;20246;-81
2023/01/31 10:29:00;;;;;;;11.73;4.70;;;;;;;3.83;76.94;96447.59;4954182;28;20212;-81
2023/01/31 10:31:39;;;;;;;10.53;4.07;;;;;;;3.80;76.99;96442.63;4987455;28;20254;-82
2023/01/31 10:34:18;;;;;;;10.20;4.10;;;;;;;3.51;77.92;96446.78;4971115;28;20675;-78
2023/01/31 10:37:01;;;;;;;13.30;5.00;;;;;;;2.95;79.04;96444.66;4970598;28;20210;-79
2023/01/31 10:39:42;;;;;;;15.97;4.57;;;;;;;3.35;78.16;96433.91;4972820;28;20199;-79
2023/01/31 10:42:17;;;;;;;13.17;3.80;;;;;;;3.15;78.92;96438.47;5004947;28;20218;-79
2023/01/31 10:44:52;;;;;;;11.23;4.00;;;;;;;3.26;76.97;96431.84;5039862;28;20277;-79
2023/01/31 10:47:19;;;;;;;7.97;3.83;;;;;;;2.93;78.14;96443.91;5045963;28;20201;-79
2023/01/31 10:49:49;;;;;;;7.17;3.33;;;;;;;3.05;77.75;96443.25;5045257;28;20178;-79
2023/01/31 10:52:14;;;;;;;8.00;3.50;;;;;;;3.00;78.05;96440.09;5032805;28;20225;-80
2023/01/31 10:54:55;;;;;;;10.90;4.27;;;;;;;3.23;77.70;96441.47;5043607;28;20240;-79
2023/01/31 10:57:21;;;;;;;21.77;9.77;;;;;;;3.09;77.34;96442.16;5043176;28;20213;-79
2023/01/31 10:59:47;;;;;;;7.83;4.30;;;;;;;3.04;77.10;96445.00;5036547;28;20221;-79
2023/01/31 11:02:25;;;;;;;8.13;4.97;;;;;;;3.15;77.69;96416.19;5035827;28;20318;-79
2023/01/31 11:04:52;;;;;;;7.30;3.77;;;;;;;3.27;75.91;96430.09;5040056;28;20206;-77
2023/01/31 11:07:17;;;;;;;17.53;3.93;;;;;;;3.28;76.37;96424.91;5034769;28;20208;-80
2023/01/31 11:09:50;;;;;;;12.23;4.63;;;;;;;3.13;76.72;96426.53;5033466;28;20261;-79
2023/01/31 11:12:15;;;;;;;9.67;3.37;;;;;;;3.32;75.32;96418.69;5045031;28;20631;-79
2023/01/31 11:14:41;;;;;;;10.13;3.63;;;;;;;3.47;74.99;96400.81;5026819;28;20179;-79
2023/01/31 11:17:14;;;;;;;7.20;2.97;;;;;;;3.28;74.92;96376.13;5053642;28;20554;-79
2023/01/31 11:19:44;;;;;;;8.97;3.57;;;;;;;3.11;75.72;96387.31;5037907;28;20189;-81
2023/01/31 11:22:21;;;;;;;7.20;3.33;;;;;;;2.87;77.25;96373.19;5037160;28;20213;-79
2023/01/31 11:24:48;;;;;;;8.37;4.33;;;;;;;3.29;75.72;96375.22;5034893;28;20723;-80
2023/01/31 11:27:23;;;;;;;10.30;3.80;;;;;;;3.63;74.71;96368.25;5034242;28;20348;-80
2023/01/31 11:29:50;;;;;;;11.53;4.10;;;;;;;3.85;74.27;96366.13;5044241;28;20190;-80
2023/01/31 11:32:23;;;;;;;8.77;3.63;;;;;;;3.80;73.12;96368.13;5033344;28;20206;-80
2023/01/31 11:34:54;;;;;;;9.83;3.37;;;;;;;3.45;73.54;96362.38;5034249;28;20202;-80
2023/01/31 11:37:20;;;;;;;7.73;2.90;;;;;;;3.42;73.67;96362.53;5050751;28;20191;-80
2023/01/31 11:39:56;;;;;;;9.33;3.33;;;;;;;3.47;74.15;96358.00;5044408;28;20623;-80
2023/01/31 11:42:22;;;;;;;6.50;3.00;;;;;;;3.87;73.21;96363.44;5043216;28;20239;-80